sensor_id;sensor_type;location;lat;lon;timestamp;pressure;altitude;pressure_sealevel;temperature;humidity
46392;BME280;32098;49.448;7.904;2023-04-28T00:00:20;97856.38;;;9.92;64.98
46392;BME280;32098;49.448;7.904;2023-04-28T00:02:49;97857.88;;;9.88;66.61
46392;BME280;32098;49.448;7.904;2023-04-28T00:05:17;97914.47;;;10.13;68.51
46392;BME280;32098;49.448;7.904;2023-04-28T00:07:44;97909.38;;;10.12;67.89
46392;BME280;32098;49.448;7.904;2023-04-28T00:10:11;97871.41;;;9.98;67.14
46392;BME280;32098;49.448;7.904;2023-04-28T00:12:38;97874.19;;;10.03;67.54
46392;BME280;32098;49.448;7.904;2023-04-28T00:15:05;97915.25;;;10.25;68.29
46392;BME280;32098;49.448;7.904;2023-04-28T00:17:33;97907.03;;;10.27;68.92
46392;BME280;32098;49.448;7.904;2023-04-28T00:20:00;97894.66;;;10.09;69.68
46392;BME280;32098;49.448;7.904;2023-04-28T00:22:26;97855.41;;;9.98;69.04
46392;BME280;32098;49.448;7.904;2023-04-28T00:24:53;97865.41;;;9.91;69.20
46392;BME280;32098;49.448;7.904;2023-04-28T00:27:20;97877.44;;;10.05;68.78
46392;BME280;32098;49.448;7.904;2023-04-28T00:29:48;97852.09;;;9.79;69.48
46392;BME280;32098;49.448;7.904;2023-04-28T00:32:15;97836.09;;;9.79;69.61
46392;BME280;32098;49.448;7.904;2023-04-28T00:34:42;97893.13;;;10.02;69.79
46392;BME280;32098;49.448;7.904;2023-04-28T00:37:09;97861.03;;;9.85;69.62
46392;BME280;32098;49.448;7.904;2023-04-28T00:39:36;97891.72;;;9.99;69.34
46392;BME280;32098;49.448;7.904;2023-04-28T00:42:02;97819.88;;;9.58;69.02
46392;BME280;32098;49.448;7.904;2023-04-28T00:44:30;97867.38;;;9.96;68.52
46392;BME280;32098;49.448;7.904;2023-04-28T00:46:58;97879.31;;;10.16;68.68
46392;BME280;32098;49.448;7.904;2023-04-28T00:49:27;97871.09;;;10.06;70.22
46392;BME280;32098;49.448;7.904;2023-04-28T00:51:54;97779.66;;;9.48;70.71
46392;BME280;32098;49.448;7.904;2023-04-28T00:54:22;97835.63;;;9.82;70.02
46392;BME280;32098;49.448;7.904;2023-04-28T00:56:48;97834.22;;;9.68;70.34
46392;BME280;32098;49.448;7.904;2023-04-28T00:59:16;97713.06;;;9.13;69.03
46392;BME280;32098;49.448;7.904;2023-04-28T01:01:44;97796.47;;;9.60;69.44
46392;BME280;32098;49.448;7.904;2023-04-28T01:04:11;97800.53;;;9.62;69.24
46392;BME280;32098;49.448;7.904;2023-04-28T01:06:41;97831.78;;;9.90;68.67
46392;BME280;32098;49.448;7.904;2023-04-28T01:09:09;97655.28;;;8.67;69.16
46392;BME280;32098;49.448;7.904;2023-04-28T01:11:36;97864.25;;;9.99;69.95
46392;BME280;32098;49.448;7.904;2023-04-28T01:14:09;97867.84;;;10.04;70.06
46392;BME280;32098;49.448;7.904;2023-04-28T01:16:39;97854.28;;;9.94;70.80
46392;BME280;32098;49.448;7.904;2023-04-28T01:19:07;97820.69;;;9.70;71.36
46392;BME280;32098;49.448;7.904;2023-04-28T01:21:36;97851.28;;;9.79;71.39
46392;BME280;32098;49.448;7.904;2023-04-28T01:24:13;97784.06;;;9.31;70.71
46392;BME280;32098;49.448;7.904;2023-04-28T01:26:50;97820.91;;;9.57;71.50
46392;BME280;32098;49.448;7.904;2023-04-28T01:29:17;97814.09;;;9.49;73.77
46392;BME280;32098;49.448;7.904;2023-04-28T01:31:44;97841.06;;;9.76;75.79
46392;BME280;32098;49.448;7.904;2023-04-28T01:34:12;97865.88;;;9.88;76.72
46392;BME280;32098;49.448;7.904;2023-04-28T01:36:40;97793.94;;;9.42;77.83
46392;BME280;32098;49.448;7.904;2023-04-28T01:39:09;97861.13;;;9.90;77.18
46392;BME280;32098;49.448;7.904;2023-04-28T01:41:36;97866.22;;;9.92;75.05
46392;BME280;32098;49.448;7.904;2023-04-28T01:44:03;97858.94;;;9.87;74.19
46392;BME280;32098;49.448;7.904;2023-04-28T01:46:30;97842.00;;;9.81;74.20
46392;BME280;32098;49.448;7.904;2023-04-28T01:48:57;97853.13;;;9.90;75.58
46392;BME280;32098;49.448;7.904;2023-04-28T01:51:23;97852.19;;;9.84;75.18
46392;BME280;32098;49.448;7.904;2023-04-28T01:53:51;97850.34;;;9.85;76.39
46392;BME280;32098;49.448;7.904;2023-04-28T01:56:18;97801.09;;;9.41;76.54
46392;BME280;32098;49.448;7.904;2023-04-28T01:58:45;97837.59;;;9.64;77.68
46392;BME280;32098;49.448;7.904;2023-04-28T02:01:12;97834.38;;;9.62;78.12
46392;BME280;32098;49.448;7.904;2023-04-28T02:03:40;97822.19;;;9.54;78.31
46392;BME280;32098;49.448;7.904;2023-04-28T02:06:08;97828.69;;;9.47;77.97
46392;BME280;32098;49.448;7.904;2023-04-28T02:08:34;97762.53;;;8.97;78.46
46392;BME280;32098;49.448;7.904;2023-04-28T02:11:04;97860.88;;;9.45;78.34
46392;BME280;32098;49.448;7.904;2023-04-28T02:13:31;97842.84;;;9.47;77.72
46392;BME280;32098;49.448;7.904;2023-04-28T02:15:59;97812.19;;;9.15;78.48
46392;BME280;32098;49.448;7.904;2023-04-28T02:18:29;97825.09;;;9.41;77.68
46392;BME280;32098;49.448;7.904;2023-04-28T02:21:10;97853.34;;;9.65;78.19
46392;BME280;32098;49.448;7.904;2023-04-28T02:23:38;97858.47;;;9.67;78.58
46392;BME280;32098;49.448;7.904;2023-04-28T02:26:06;97772.03;;;9.16;79.10
46392;BME280;32098;49.448;7.904;2023-04-28T02:28:33;97819.31;;;9.44;79.33
46392;BME280;32098;49.448;7.904;2023-04-28T02:31:06;97857.06;;;9.76;79.48
46392;BME280;32098;49.448;7.904;2023-04-28T02:33:35;97838.19;;;9.77;79.12
46392;BME280;32098;49.448;7.904;2023-04-28T02:36:03;97838.06;;;9.72;79.14
46392;BME280;32098;49.448;7.904;2023-04-28T02:38:31;97798.56;;;9.46;79.59
46392;BME280;32098;49.448;7.904;2023-04-28T02:41:02;97841.06;;;9.76;79.96
46392;BME280;32098;49.448;7.904;2023-04-28T02:43:31;97832.41;;;9.57;80.39
46392;BME280;32098;49.448;7.904;2023-04-28T02:45:58;97764.72;;;9.23;81.03
46392;BME280;32098;49.448;7.904;2023-04-28T02:48:25;97824.06;;;9.42;80.81
46392;BME280;32098;49.448;7.904;2023-04-28T02:50:52;97763.22;;;9.04;81.19
46392;BME280;32098;49.448;7.904;2023-04-28T02:53:20;97823.94;;;9.49;80.88
46392;BME280;32098;49.448;7.904;2023-04-28T02:55:48;97810.50;;;9.44;80.85
46392;BME280;32098;49.448;7.904;2023-04-28T02:58:15;97777.47;;;9.21;80.67
46392;BME280;32098;49.448;7.904;2023-04-28T03:00:44;97795.66;;;9.25;81.51
46392;BME280;32098;49.448;7.904;2023-04-28T03:03:12;97808.53;;;9.39;81.61
46392;BME280;32098;49.448;7.904;2023-04-28T03:05:41;97783.84;;;9.32;81.34
46392;BME280;32098;49.448;7.904;2023-04-28T03:08:07;97746.31;;;9.10;81.44
46392;BME280;32098;49.448;7.904;2023-04-28T03:10:34;97797.38;;;9.31;81.72
46392;BME280;32098;49.448;7.904;2023-04-28T03:13:02;97803.41;;;9.38;81.24
46392;BME280;32098;49.448;7.904;2023-04-28T03:15:29;97798.19;;;9.43;81.09
46392;BME280;32098;49.448;7.904;2023-04-28T03:17:56;97749.78;;;8.99;81.53
46392;BME280;32098;49.448;7.904;2023-04-28T03:20:23;97744.81;;;8.91;82.29
46392;BME280;32098;49.448;7.904;2023-04-28T03:22:50;97760.00;;;9.02;83.05
46392;BME280;32098;49.448;7.904;2023-04-28T03:25:17;97769.25;;;9.11;82.66
46392;BME280;32098;49.448;7.904;2023-04-28T03:27:49;97812.56;;;9.53;82.31
46392;BME280;32098;49.448;7.904;2023-04-28T03:30:16;97807.94;;;9.49;82.41
46392;BME280;32098;49.448;7.904;2023-04-28T03:32:42;97771.91;;;9.35;82.65
46392;BME280;32098;49.448;7.904;2023-04-28T03:35:09;97796.69;;;9.58;82.49
46392;BME280;32098;49.448;7.904;2023-04-28T03:37:38;97764.97;;;9.34;82.91
46392;BME280;32098;49.448;7.904;2023-04-28T03:40:07;97780.25;;;9.50;83.25
46392;BME280;32098;49.448;7.904;2023-04-28T03:42:54;97731.50;;;9.14;83.36
46392;BME280;32098;49.448;7.904;2023-04-28T03:45:25;97716.69;;;9.07;83.80
46392;BME280;32098;49.448;7.904;2023-04-28T03:47:52;97765.97;;;9.33;84.16
46392;BME280;32098;49.448;7.904;2023-04-28T03:50:19;97711.00;;;9.03;84.61
46392;BME280;32098;49.448;7.904;2023-04-28T03:52:51;97778.63;;;9.49;85.21
46392;BME280;32098;49.448;7.904;2023-04-28T03:55:18;97739.34;;;9.33;85.15
46392;BME280;32098;49.448;7.904;2023-04-28T03:57:45;97774.31;;;9.48;85.18
46392;BME280;32098;49.448;7.904;2023-04-28T04:00:12;97755.56;;;9.43;85.22
46392;BME280;32098;49.448;7.904;2023-04-28T04:02:44;97771.97;;;9.63;85.29
46392;BME280;32098;49.448;7.904;2023-04-28T04:05:16;97750.94;;;9.50;85.60
46392;BME280;32098;49.448;7.904;2023-04-28T04:07:44;97723.25;;;9.28;85.82
46392;BME280;32098;49.448;7.904;2023-04-28T04:10:11;97733.44;;;9.31;85.35
46392;BME280;32098;49.448;7.904;2023-04-28T04:12:43;97703.78;;;9.15;85.99
46392;BME280;32098;49.448;7.904;2023-04-28T04:15:10;97682.84;;;9.07;85.23
46392;BME280;32098;49.448;7.904;2023-04-28T04:17:38;97744.78;;;9.49;85.82
46392;BME280;32098;49.448;7.904;2023-04-28T04:20:06;97755.31;;;9.56;85.95
46392;BME280;32098;49.448;7.904;2023-04-28T04:22:34;97763.88;;;9.58;86.34
46392;BME280;32098;49.448;7.904;2023-04-28T04:25:02;97753.72;;;9.55;86.44
46392;BME280;32098;49.448;7.904;2023-04-28T04:27:29;97731.00;;;9.41;86.89
46392;BME280;32098;49.448;7.904;2023-04-28T04:29:56;97687.00;;;9.27;86.60
46392;BME280;32098;49.448;7.904;2023-04-28T04:32:25;97709.78;;;9.46;85.66
46392;BME280;32098;49.448;7.904;2023-04-28T04:34:52;97710.97;;;9.50;85.40
46392;BME280;32098;49.448;7.904;2023-04-28T04:37:19;97697.88;;;9.37;85.37
46392;BME280;32098;49.448;7.904;2023-04-28T04:39:58;97646.03;;;9.04;85.43
46392;BME280;32098;49.448;7.904;2023-04-28T04:42:29;97727.38;;;9.58;85.19
46392;BME280;32098;49.448;7.904;2023-04-28T04:45:04;97736.75;;;9.72;84.96
46392;BME280;32098;49.448;7.904;2023-04-28T04:47:31;97706.66;;;9.49;84.44
46392;BME280;32098;49.448;7.904;2023-04-28T04:49:58;97716.28;;;9.50;84.84
46392;BME280;32098;49.448;7.904;2023-04-28T04:52:25;97662.81;;;9.16;84.59
46392;BME280;32098;49.448;7.904;2023-04-28T04:54:52;97664.53;;;9.11;84.82
46392;BME280;32098;49.448;7.904;2023-04-28T04:57:23;97752.19;;;9.59;85.75
46392;BME280;32098;49.448;7.904;2023-04-28T05:00:05;97746.50;;;9.67;85.41
46392;BME280;32098;49.448;7.904;2023-04-28T05:02:35;97712.34;;;9.52;84.99
46392;BME280;32098;49.448;7.904;2023-04-28T05:05:04;97748.09;;;9.68;84.92
46392;BME280;32098;49.448;7.904;2023-04-28T05:08:00;97747.06;;;9.69;85.09
46392;BME280;32098;49.448;7.904;2023-04-28T05:10:28;97739.88;;;9.69;85.10
46392;BME280;32098;49.448;7.904;2023-04-28T05:12:57;97711.88;;;9.44;85.07
46392;BME280;32098;49.448;7.904;2023-04-28T05:15:23;97728.44;;;9.46;85.89
46392;BME280;32098;49.448;7.904;2023-04-28T05:18:20;97739.91;;;9.46;86.32
46392;BME280;32098;49.448;7.904;2023-04-28T05:20:47;97713.75;;;9.32;86.61
46392;BME280;32098;49.448;7.904;2023-04-28T05:23:17;97594.19;;;8.49;86.86
46392;BME280;32098;49.448;7.904;2023-04-28T05:25:43;97688.88;;;9.03;87.39
46392;BME280;32098;49.448;7.904;2023-04-28T05:28:11;97702.41;;;9.13;87.81
46392;BME280;32098;49.448;7.904;2023-04-28T05:30:39;97721.97;;;9.42;87.55
46392;BME280;32098;49.448;7.904;2023-04-28T05:33:06;97717.88;;;9.51;87.56
46392;BME280;32098;49.448;7.904;2023-04-28T05:35:33;97708.28;;;9.50;87.33
46392;BME280;32098;49.448;7.904;2023-04-28T05:38:01;97713.13;;;9.53;87.53
46392;BME280;32098;49.448;7.904;2023-04-28T05:40:28;97672.63;;;9.28;87.63
46392;BME280;32098;49.448;7.904;2023-04-28T05:42:55;97693.13;;;9.39;87.79
46392;BME280;32098;49.448;7.904;2023-04-28T05:45:22;97722.41;;;9.50;88.32
46392;BME280;32098;49.448;7.904;2023-04-28T05:47:49;97728.91;;;9.43;89.07
46392;BME280;32098;49.448;7.904;2023-04-28T05:50:16;97740.28;;;9.50;89.75
46392;BME280;32098;49.448;7.904;2023-04-28T05:52:44;97666.63;;;9.09;89.98
46392;BME280;32098;49.448;7.904;2023-04-28T05:55:11;97740.03;;;9.51;89.58
46392;BME280;32098;49.448;7.904;2023-04-28T05:57:40;97714.81;;;9.19;91.20
46392;BME280;32098;49.448;7.904;2023-04-28T06:00:18;97721.41;;;9.28;91.50
46392;BME280;32098;49.448;7.904;2023-04-28T06:02:46;97690.25;;;9.05;91.83
46392;BME280;32098;49.448;7.904;2023-04-28T06:05:16;97726.63;;;9.35;92.12
46392;BME280;32098;49.448;7.904;2023-04-28T06:07:44;97678.22;;;8.91;93.32
46392;BME280;32098;49.448;7.904;2023-04-28T06:10:15;97701.59;;;9.12;93.03
46392;BME280;32098;49.448;7.904;2023-04-28T06:12:42;97735.50;;;9.40;93.85
46392;BME280;32098;49.448;7.904;2023-04-28T06:15:10;97743.97;;;9.49;93.29
46392;BME280;32098;49.448;7.904;2023-04-28T06:17:38;97736.91;;;9.54;93.23
46392;BME280;32098;49.448;7.904;2023-04-28T06:20:07;97718.94;;;9.50;93.41
46392;BME280;32098;49.448;7.904;2023-04-28T06:22:36;97690.25;;;9.29;93.29
46392;BME280;32098;49.448;7.904;2023-04-28T06:25:05;97731.78;;;9.53;92.34
46392;BME280;32098;49.448;7.904;2023-04-28T06:27:37;97706.78;;;9.42;91.89
46392;BME280;32098;49.448;7.904;2023-04-28T06:30:08;97702.03;;;9.33;92.92
46392;BME280;32098;49.448;7.904;2023-04-28T06:32:35;97710.63;;;9.35;93.54
46392;BME280;32098;49.448;7.904;2023-04-28T06:35:02;97763.75;;;9.76;93.81
46392;BME280;32098;49.448;7.904;2023-04-28T06:37:28;97744.97;;;9.71;93.16
46392;BME280;32098;49.448;7.904;2023-04-28T06:39:56;97729.81;;;9.60;93.33
46392;BME280;32098;49.448;7.904;2023-04-28T06:42:25;97729.81;;;9.60;92.96
46392;BME280;32098;49.448;7.904;2023-04-28T06:45:05;97671.03;;;9.27;92.54
46392;BME280;32098;49.448;7.904;2023-04-28T06:47:35;97744.16;;;9.82;92.67
46392;BME280;32098;49.448;7.904;2023-04-28T06:50:08;97687.06;;;9.55;92.46
46392;BME280;32098;49.448;7.904;2023-04-28T06:52:35;97749.19;;;9.95;92.17
46392;BME280;32098;49.448;7.904;2023-04-28T06:55:08;97752.91;;;9.94;92.12
46392;BME280;32098;49.448;7.904;2023-04-28T06:57:35;97727.38;;;9.70;91.88
46392;BME280;32098;49.448;7.904;2023-04-28T07:00:04;97705.59;;;9.61;91.89
46392;BME280;32098;49.448;7.904;2023-04-28T07:02:31;97761.03;;;9.99;90.76
46392;BME280;32098;49.448;7.904;2023-04-28T07:04:58;97685.28;;;9.72;91.50
46392;BME280;32098;49.448;7.904;2023-04-28T07:07:25;97681.75;;;9.83;91.35
46392;BME280;32098;49.448;7.904;2023-04-28T07:09:52;97698.25;;;9.80;91.20
46392;BME280;32098;49.448;7.904;2023-04-28T07:12:20;97754.19;;;10.31;91.72
46392;BME280;32098;49.448;7.904;2023-04-28T07:14:48;97749.69;;;10.32;91.63
46392;BME280;32098;49.448;7.904;2023-04-28T07:17:16;97761.25;;;10.37;91.25
46392;BME280;32098;49.448;7.904;2023-04-28T07:19:42;97731.03;;;10.20;90.83
46392;BME280;32098;49.448;7.904;2023-04-28T07:22:09;97762.63;;;10.40;91.05
46392;BME280;32098;49.448;7.904;2023-04-28T07:24:35;97747.81;;;10.32;91.35
46392;BME280;32098;49.448;7.904;2023-04-28T07:27:02;97735.84;;;10.35;91.41
46392;BME280;32098;49.448;7.904;2023-04-28T07:29:29;97675.19;;;10.02;91.22
46392;BME280;32098;49.448;7.904;2023-04-28T07:32:01;97769.94;;;10.61;91.55
46392;BME280;32098;49.448;7.904;2023-04-28T07:34:34;97722.25;;;10.36;91.83
46392;BME280;32098;49.448;7.904;2023-04-28T07:37:02;97628.19;;;9.84;91.61
46392;BME280;32098;49.448;7.904;2023-04-28T07:39:31;97765.03;;;10.70;91.51
46392;BME280;32098;49.448;7.904;2023-04-28T07:42:02;97745.00;;;10.56;91.52
46392;BME280;32098;49.448;7.904;2023-04-28T07:44:29;97722.28;;;10.53;91.53
46392;BME280;32098;49.448;7.904;2023-04-28T07:46:58;97582.00;;;9.67;91.09
46392;BME280;32098;49.448;7.904;2023-04-28T07:49:27;97753.44;;;10.81;91.68
46392;BME280;32098;49.448;7.904;2023-04-28T07:51:55;97742.94;;;10.91;91.75
46392;BME280;32098;49.448;7.904;2023-04-28T07:54:24;97684.66;;;10.71;92.03
46392;BME280;32098;49.448;7.904;2023-04-28T07:56:51;97617.03;;;10.32;92.24
46392;BME280;32098;49.448;7.904;2023-04-28T07:59:17;97733.19;;;11.18;92.29
46392;BME280;32098;49.448;7.904;2023-04-28T08:01:44;97691.75;;;10.99;92.90
46392;BME280;32098;49.448;7.904;2023-04-28T08:04:11;97649.44;;;10.91;93.17
46392;BME280;32098;49.448;7.904;2023-04-28T08:06:40;97698.03;;;11.26;93.03
46392;BME280;32098;49.448;7.904;2023-04-28T08:09:07;97669.13;;;11.23;94.17
46392;BME280;32098;49.448;7.904;2023-04-28T08:11:37;97643.88;;;11.14;94.54
46392;BME280;32098;49.448;7.904;2023-04-28T08:14:05;97693.31;;;11.71;94.94
46392;BME280;32098;49.448;7.904;2023-04-28T08:16:34;97673.75;;;11.71;94.85
46392;BME280;32098;49.448;7.904;2023-04-28T08:19:04;97681.47;;;11.89;94.06
46392;BME280;32098;49.448;7.904;2023-04-28T08:21:32;97666.22;;;11.90;93.93
46392;BME280;32098;49.448;7.904;2023-04-28T08:23:59;97719.47;;;12.13;94.06
46392;BME280;32098;49.448;7.904;2023-04-28T08:26:28;97729.75;;;12.26;94.20
46392;BME280;32098;49.448;7.904;2023-04-28T08:28:55;97728.78;;;12.32;93.32
46392;BME280;32098;49.448;7.904;2023-04-28T08:31:22;97676.53;;;12.03;93.16
46392;BME280;32098;49.448;7.904;2023-04-28T08:33:51;97733.25;;;12.48;91.79
46392;BME280;32098;49.448;7.904;2023-04-28T08:36:22;97590.94;;;11.81;89.73
46392;BME280;32098;49.448;7.904;2023-04-28T08:38:57;97721.88;;;12.63;88.17
46392;BME280;32098;49.448;7.904;2023-04-28T08:41:25;97696.53;;;12.49;89.66
46392;BME280;32098;49.448;7.904;2023-04-28T08:43:55;97667.69;;;12.29;89.97
46392;BME280;32098;49.448;7.904;2023-04-28T08:46:22;97725.81;;;12.55;91.36
46392;BME280;32098;49.448;7.904;2023-04-28T08:48:50;97706.41;;;12.43;92.01
46392;BME280;32098;49.448;7.904;2023-04-28T08:51:26;97729.63;;;12.64;92.10
46392;BME280;32098;49.448;7.904;2023-04-28T08:54:01;97677.91;;;12.32;92.41
46392;BME280;32098;49.448;7.904;2023-04-28T08:56:50;97668.50;;;12.29;92.43
46392;BME280;32098;49.448;7.904;2023-04-28T08:59:18;97706.59;;;12.63;92.48
46392;BME280;32098;49.448;7.904;2023-04-28T09:01:47;97738.31;;;12.76;92.91
46392;BME280;32098;49.448;7.904;2023-04-28T09:04:16;97690.41;;;12.53;92.66
46392;BME280;32098;49.448;7.904;2023-04-28T09:06:45;97718.16;;;12.69;93.43
46392;BME280;32098;49.448;7.904;2023-04-28T09:09:29;97746.75;;;12.90;93.48
46392;BME280;32098;49.448;7.904;2023-04-28T09:12:03;97721.44;;;12.76;93.96
46392;BME280;32098;49.448;7.904;2023-04-28T09:14:32;97717.66;;;12.72;95.02
46392;BME280;32098;49.448;7.904;2023-04-28T09:17:02;97744.31;;;12.88;95.37
46392;BME280;32098;49.448;7.904;2023-04-28T09:19:36;97738.53;;;13.01;95.49
46392;BME280;32098;49.448;7.904;2023-04-28T09:22:04;97738.56;;;13.07;95.91
46392;BME280;32098;49.448;7.904;2023-04-28T09:24:53;97741.78;;;13.09;95.88
46392;BME280;32098;49.448;7.904;2023-04-28T09:27:27;97746.44;;;13.18;95.94
46392;BME280;32098;49.448;7.904;2023-04-28T09:29:56;97682.34;;;12.80;95.37
46392;BME280;32098;49.448;7.904;2023-04-28T09:32:23;97752.09;;;13.27;95.21
46392;BME280;32098;49.448;7.904;2023-04-28T09:34:53;97753.19;;;13.26;95.41
46392;BME280;32098;49.448;7.904;2023-04-28T09:37:24;97732.22;;;13.18;95.39
46392;BME280;32098;49.448;7.904;2023-04-28T09:39:53;97744.41;;;13.35;94.92
46392;BME280;32098;49.448;7.904;2023-04-28T09:42:40;97736.78;;;13.22;95.15
46392;BME280;32098;49.448;7.904;2023-04-28T09:45:09;97726.34;;;13.21;95.80
46392;BME280;32098;49.448;7.904;2023-04-28T09:47:40;97727.44;;;13.25;96.06
46392;BME280;32098;49.448;7.904;2023-04-28T09:50:09;97748.44;;;13.38;96.62
46392;BME280;32098;49.448;7.904;2023-04-28T09:52:38;97764.59;;;13.48;96.80
46392;BME280;32098;49.448;7.904;2023-04-28T09:55:16;97763.88;;;13.57;96.40
46392;BME280;32098;49.448;7.904;2023-04-28T09:57:44;97701.44;;;13.25;96.00
46392;BME280;32098;49.448;7.904;2023-04-28T10:00:15;97769.53;;;13.66;96.54
46392;BME280;32098;49.448;7.904;2023-04-28T10:02:49;97769.50;;;13.61;96.10
46392;BME280;32098;49.448;7.904;2023-04-28T10:05:20;97691.97;;;13.13;96.45
46392;BME280;32098;49.448;7.904;2023-04-28T10:07:47;97767.91;;;13.60;96.00
46392;BME280;32098;49.448;7.904;2023-04-28T10:10:18;97742.84;;;13.44;96.31
46392;BME280;32098;49.448;7.904;2023-04-28T10:12:46;97686.09;;;13.16;96.17
46392;BME280;32098;49.448;7.904;2023-04-28T10:15:14;97728.00;;;13.32;96.38
46392;BME280;32098;49.448;7.904;2023-04-28T10:17:42;97762.53;;;13.55;96.01
46392;BME280;32098;49.448;7.904;2023-04-28T10:20:10;97735.31;;;13.46;96.46
46392;BME280;32098;49.448;7.904;2023-04-28T10:25:32;97750.28;;;13.79;97.06
46392;BME280;32098;49.448;7.904;2023-04-28T10:28:07;97754.63;;;13.85;97.10
46392;BME280;32098;49.448;7.904;2023-04-28T10:30:36;97635.13;;;13.11;96.05
46392;BME280;32098;49.448;7.904;2023-04-28T10:35:45;97757.91;;;13.97;95.22
46392;BME280;32098;49.448;7.904;2023-04-28T10:38:17;97696.00;;;13.57;94.66
46392;BME280;32098;49.448;7.904;2023-04-28T10:40:46;97767.63;;;14.08;94.71
46392;BME280;32098;49.448;7.904;2023-04-28T10:56:23;97766.06;;;14.33;93.97
46392;BME280;32098;49.448;7.904;2023-04-28T10:58:55;97748.88;;;14.39;93.41
46392;BME280;32098;49.448;7.904;2023-04-28T11:01:29;97755.88;;;14.35;93.08
46392;BME280;32098;49.448;7.904;2023-04-28T11:04:08;97736.44;;;14.07;93.61
46392;BME280;32098;49.448;7.904;2023-04-28T11:07:07;97753.97;;;14.25;93.80
46392;BME280;32098;49.448;7.904;2023-04-28T11:12:05;97755.34;;;14.33;94.38
46392;BME280;32098;49.448;7.904;2023-04-28T11:14:36;97755.84;;;14.29;94.41
46392;BME280;32098;49.448;7.904;2023-04-28T11:17:09;97739.75;;;14.40;94.62
46392;BME280;32098;49.448;7.904;2023-04-28T11:19:41;97696.22;;;14.22;95.48
46392;BME280;32098;49.448;7.904;2023-04-28T11:22:19;97742.53;;;14.65;95.64
46392;BME280;32098;49.448;7.904;2023-04-28T11:24:58;97719.41;;;14.74;95.55
46392;BME280;32098;49.448;7.904;2023-04-28T11:27:27;97711.91;;;14.76;94.63
46392;BME280;32098;49.448;7.904;2023-04-28T11:29:53;97697.38;;;14.62;93.93
46392;BME280;32098;49.448;7.904;2023-04-28T11:32:32;97712.44;;;14.88;93.21
46392;BME280;32098;49.448;7.904;2023-04-28T11:34:59;97644.13;;;14.39;91.98
46392;BME280;32098;49.448;7.904;2023-04-28T11:37:26;97724.00;;;14.93;91.67
46392;BME280;32098;49.448;7.904;2023-04-28T11:39:53;97690.94;;;14.73;91.44
46392;BME280;32098;49.448;7.904;2023-04-28T11:42:21;97716.19;;;14.87;91.41
46392;BME280;32098;49.448;7.904;2023-04-28T11:44:50;97744.16;;;14.86;91.80
46392;BME280;32098;49.448;7.904;2023-04-28T11:47:31;97745.50;;;14.83;91.61
46392;BME280;32098;49.448;7.904;2023-04-28T11:49:59;97699.47;;;14.40;92.68
46392;BME280;32098;49.448;7.904;2023-04-28T11:52:28;97758.13;;;14.88;93.24
46392;BME280;32098;49.448;7.904;2023-04-28T11:54:56;97692.50;;;14.54;92.43
46392;BME280;32098;49.448;7.904;2023-04-28T11:57:25;97669.41;;;14.53;92.81
46392;BME280;32098;49.448;7.904;2023-04-28T12:00:15;97741.47;;;15.06;92.95
46392;BME280;32098;49.448;7.904;2023-04-28T12:02:47;97754.09;;;15.26;92.63
46392;BME280;32098;49.448;7.904;2023-04-28T12:05:18;97722.06;;;15.14;91.75
46392;BME280;32098;49.448;7.904;2023-04-28T12:07:48;97687.97;;;14.89;90.61
46392;BME280;32098;49.448;7.904;2023-04-28T12:10:17;97748.97;;;15.19;90.40
46392;BME280;32098;49.448;7.904;2023-04-28T12:12:45;97706.50;;;15.06;89.60
46392;BME280;32098;49.448;7.904;2023-04-28T12:15:20;97759.19;;;15.32;89.66
46392;BME280;32098;49.448;7.904;2023-04-28T12:17:48;97649.00;;;14.72;90.61
46392;BME280;32098;49.448;7.904;2023-04-28T12:20:35;97761.88;;;15.47;91.48
46392;BME280;32098;49.448;7.904;2023-04-28T12:23:05;97757.03;;;15.54;91.62
46392;BME280;32098;49.448;7.904;2023-04-28T12:25:42;97752.19;;;15.51;90.04
46392;BME280;32098;49.448;7.904;2023-04-28T12:28:10;97715.84;;;15.39;89.61
46392;BME280;32098;49.448;7.904;2023-04-28T12:30:38;97721.19;;;15.69;90.71
46392;BME280;32098;49.448;7.904;2023-04-28T12:33:24;97723.19;;;16.07;93.59
46392;BME280;32098;49.448;7.904;2023-04-28T12:35:55;97745.09;;;16.45;91.00
46392;BME280;32098;49.448;7.904;2023-04-28T12:38:23;97663.38;;;16.10;88.04
46392;BME280;32098;49.448;7.904;2023-04-28T12:40:56;97737.69;;;16.65;84.91
46392;BME280;32098;49.448;7.904;2023-04-28T12:43:26;97717.19;;;16.64;84.54
46392;BME280;32098;49.448;7.904;2023-04-28T12:45:54;97729.53;;;16.75;85.18
46392;BME280;32098;49.448;7.904;2023-04-28T12:48:24;97731.63;;;16.83;84.38
46392;BME280;32098;49.448;7.904;2023-04-28T12:50:59;97699.84;;;16.80;83.36
46392;BME280;32098;49.448;7.904;2023-04-28T12:53:27;97715.19;;;16.80;83.90
46392;BME280;32098;49.448;7.904;2023-04-28T12:55:55;97724.16;;;16.75;82.21
46392;BME280;32098;49.448;7.904;2023-04-28T12:58:23;97732.69;;;16.88;80.42
46392;BME280;32098;49.448;7.904;2023-04-28T13:00:49;97713.91;;;16.72;80.34
46392;BME280;32098;49.448;7.904;2023-04-28T13:03:16;97713.50;;;16.89;79.19
46392;BME280;32098;49.448;7.904;2023-04-28T13:05:45;97607.81;;;16.19;79.88
46392;BME280;32098;49.448;7.904;2023-04-28T13:08:15;97718.97;;;16.79;79.59
46392;BME280;32098;49.448;7.904;2023-04-28T13:10:44;97647.31;;;16.34;78.72
46392;BME280;32098;49.448;7.904;2023-04-28T13:13:13;97689.59;;;16.77;79.40
46392;BME280;32098;49.448;7.904;2023-04-28T13:15:43;97719.53;;;17.10;78.38
46392;BME280;32098;49.448;7.904;2023-04-28T13:18:15;97709.97;;;17.27;78.49
46392;BME280;32098;49.448;7.904;2023-04-28T13:20:43;97663.59;;;17.20;77.23
46392;BME280;32098;49.448;7.904;2023-04-28T13:23:13;97650.00;;;17.30;77.16
46392;BME280;32098;49.448;7.904;2023-04-28T13:25:39;97684.25;;;17.59;74.94
46392;BME280;32098;49.448;7.904;2023-04-28T13:28:06;97690.00;;;17.76;73.05
46392;BME280;32098;49.448;7.904;2023-04-28T13:30:33;97681.53;;;17.82;72.63
46392;BME280;32098;49.448;7.904;2023-04-28T13:33:02;97668.09;;;17.77;72.68
46392;BME280;32098;49.448;7.904;2023-04-28T13:35:28;97688.19;;;17.90;72.69
46392;BME280;32098;49.448;7.904;2023-04-28T13:37:55;97667.25;;;17.58;70.23